createdAt,value
2018-09-11T00:03:27.253Z,4.73
2018-09-11T00:08:29.522Z,5.20
2018-09-11T00:13:31.724Z,5.57
2018-09-11T00:18:33.945Z,5.20
2018-09-11T00:23:37.087Z,5.00
2018-09-11T00:28:39.374Z,5.50
2018-09-11T00:33:42.951Z,4.97
2018-09-11T00:38:45.408Z,5.63
2018-09-11T00:43:47.635Z,5.40
2018-09-11T00:48:49.920Z,5.40
2018-09-11T00:53:52.130Z,5.13
2018-09-11T00:58:54.305Z,5.80
2018-09-11T01:03:57.771Z,5.90
2018-09-11T01:09:01.669Z,5.80
2018-09-11T01:14:04.033Z,5.73
2018-09-11T01:19:06.258Z,5.60
2018-09-11T01:24:08.428Z,5.03
2018-09-11T01:29:10.601Z,5.10
2018-09-11T01:34:12.845Z,5.40
2018-09-11T01:39:15.086Z,6.07
2018-09-11T01:44:17.273Z,5.93
2018-09-11T01:49:19.514Z,5.37
2018-09-11T01:54:21.682Z,5.83
2018-09-11T01:59:23.864Z,6.00
2018-09-11T02:04:26.990Z,6.27
2018-09-11T02:09:29.169Z,5.57
2018-09-11T02:14:31.361Z,5.43
2018-09-11T02:19:33.565Z,5.83
2018-09-11T02:24:36.002Z,6.93
2018-09-11T02:29:38.182Z,6.60
2018-09-11T02:34:40.377Z,7.60
2018-09-11T02:39:42.577Z,7.40
2018-09-11T02:44:44.794Z,6.60
2018-09-11T02:49:46.963Z,7.03
2018-09-11T02:54:49.186Z,6.73
2018-09-11T02:59:51.427Z,7.43
2018-09-11T03:04:53.642Z,7.60
2018-09-11T03:09:55.850Z,6.70
2018-09-11T03:14:58.073Z,6.60
2018-09-11T03:20:00.249Z,6.60
2018-09-11T03:25:02.490Z,6.80
2018-09-11T03:30:05.101Z,7.80
2018-09-11T03:35:07.298Z,7.27
2018-09-11T03:40:09.533Z,7.80
2018-09-11T03:45:11.720Z,7.77
2018-09-11T03:50:17.078Z,7.83
2018-09-11T03:55:19.317Z,7.80
2018-09-11T04:00:21.502Z,6.80
2018-09-11T04:05:23.729Z,7.23
2018-09-11T04:10:25.966Z,7.00
2018-09-11T04:15:28.238Z,7.20
2018-09-11T04:20:30.489Z,6.77
2018-09-11T04:25:33.089Z,7.63
2018-09-11T04:30:35.279Z,6.77
2018-09-11T04:35:37.442Z,7.30
2018-09-11T04:40:39.634Z,8.07
2018-09-11T04:45:41.821Z,7.60
2018-09-11T04:50:44.035Z,7.77
2018-09-11T04:55:46.201Z,7.57
2018-09-11T05:00:48.381Z,7.67
2018-09-11T05:05:50.612Z,7.90
2018-09-11T05:10:54.243Z,8.10
2018-09-11T05:15:56.601Z,7.77
2018-09-11T05:20:58.910Z,7.23
2018-09-11T05:26:01.102Z,7.20
2018-09-11T05:31:03.379Z,7.10
2018-09-11T05:36:05.562Z,6.80
2018-09-11T05:41:08.594Z,6.20
2018-09-11T05:46:10.801Z,5.40
2018-09-11T05:51:13.000Z,6.30
2018-09-11T05:56:15.177Z,5.80
2018-09-11T06:01:17.362Z,5.00
2018-09-11T06:06:19.738Z,5.53
2018-09-11T06:11:22.033Z,5.60
2018-09-11T06:16:24.909Z,6.20
2018-09-11T06:21:27.066Z,6.70
2018-09-11T06:26:29.273Z,6.70
2018-09-11T06:31:31.471Z,6.17
2018-09-11T06:36:33.650Z,6.50
2018-09-11T06:41:35.858Z,6.10
2018-09-11T06:46:38.021Z,6.10
2018-09-11T06:51:40.206Z,6.17
2018-09-11T06:56:42.366Z,6.70
2018-09-11T07:01:44.578Z,5.77
2018-09-11T07:06:46.781Z,6.10
2018-09-11T07:11:48.977Z,6.57
2018-09-11T07:16:51.173Z,7.50
2018-09-11T07:21:53.373Z,6.90
2018-09-11T07:26:55.578Z,7.30
2018-09-11T07:31:57.749Z,6.73
2018-09-11T07:36:59.981Z,6.90
2018-09-11T07:42:02.201Z,6.60
2018-09-11T07:47:04.406Z,6.87
2018-09-11T07:52:06.692Z,6.40
2018-09-11T07:57:09.089Z,5.90
2018-09-11T08:02:11.261Z,6.10
2018-09-11T08:07:13.433Z,5.67
2018-09-11T08:12:15.598Z,5.40
2018-09-11T08:17:17.760Z,5.30
2018-09-11T08:22:19.918Z,5.13
2018-09-11T08:27:22.069Z,5.60
2018-09-11T08:32:24.243Z,5.20
2018-09-11T08:37:26.401Z,5.10
2018-09-11T08:42:28.582Z,5.10
2018-09-11T08:47:31.438Z,6.20
2018-09-11T08:52:33.695Z,6.10
2018-09-11T08:57:35.789Z,5.47
2018-09-11T09:02:37.926Z,5.67
2018-09-11T09:07:40.080Z,4.63
2018-09-11T09:12:42.266Z,4.30
2018-09-11T09:17:44.986Z,3.90
2018-09-11T09:22:47.183Z,4.20
2018-09-11T09:27:49.437Z,4.77
2018-09-11T09:32:51.908Z,3.13
2018-09-11T09:37:54.230Z,2.70
2018-09-11T09:42:56.418Z,2.60
2018-09-11T09:47:58.654Z,3.03
2018-09-11T09:53:00.801Z,3.00
2018-09-11T09:58:02.943Z,2.60
2018-09-11T10:03:05.340Z,5.47
2018-09-11T10:08:07.510Z,3.67
2018-09-11T10:13:10.513Z,3.07
2018-09-11T10:18:12.902Z,3.00
2018-09-11T10:23:15.425Z,3.03
2018-09-11T10:28:17.593Z,2.47
2018-09-11T10:33:19.767Z,3.17
2018-09-11T10:38:21.917Z,3.13
2018-09-11T10:43:24.082Z,3.20
2018-09-11T10:48:27.950Z,2.90
2018-09-11T10:53:30.094Z,2.60
2018-09-11T10:58:32.252Z,3.00
2018-09-11T11:03:34.427Z,2.50
2018-09-11T11:08:36.593Z,2.67
2018-09-11T11:13:38.746Z,2.40
2018-09-11T11:18:40.914Z,2.80
2018-09-11T11:23:43.374Z,2.37
2018-09-11T11:28:45.543Z,2.40
2018-09-11T11:33:49.316Z,2.90
2018-09-11T11:38:52.086Z,2.20
2018-09-11T11:43:54.719Z,2.30
2018-09-11T11:48:57.222Z,2.47
2018-09-11T11:54:00.113Z,2.90
2018-09-11T11:59:02.313Z,2.53
2018-09-11T12:04:04.865Z,2.40
2018-09-11T12:09:09.797Z,2.50
2018-09-11T12:14:12.389Z,2.57
2018-09-11T12:19:14.570Z,2.67
2018-09-11T12:24:16.732Z,2.23
2018-09-11T12:29:18.941Z,2.60
2018-09-11T12:34:21.125Z,2.20
2018-09-11T12:39:23.295Z,2.40
2018-09-11T12:44:25.464Z,2.70
2018-09-11T12:49:27.624Z,2.53
2018-09-11T12:54:29.769Z,2.90
2018-09-11T12:59:31.973Z,2.70
2018-09-11T13:04:34.153Z,2.80
2018-09-11T13:09:36.481Z,2.30
2018-09-11T13:14:38.582Z,2.43
2018-09-11T13:19:40.755Z,2.50
2018-09-11T13:24:42.925Z,2.77
2018-09-11T13:29:45.082Z,2.50
2018-09-11T13:34:47.265Z,2.70
2018-09-11T13:39:49.968Z,3.07
2018-09-11T13:44:52.263Z,2.07
2018-09-11T13:49:54.443Z,3.07
2018-09-11T13:54:56.618Z,2.53
2018-09-11T13:59:58.818Z,2.90
2018-09-11T14:05:01.006Z,2.30
2018-09-11T14:10:03.490Z,2.90
2018-09-11T14:15:06.486Z,3.67
2018-09-11T14:20:08.680Z,2.83
2018-09-11T14:25:10.864Z,2.70
2018-09-11T14:30:13.041Z,2.80
2018-09-11T14:35:15.194Z,2.60
2018-09-11T14:40:17.382Z,2.80
2018-09-11T14:45:19.716Z,2.80
2018-09-11T14:50:21.904Z,2.60
2018-09-11T14:55:24.127Z,2.73
2018-09-11T15:00:26.418Z,2.67
2018-09-11T15:05:28.545Z,16.67
2018-09-11T15:10:30.919Z,14.53
2018-09-11T15:15:33.088Z,3.20
2018-09-11T15:20:35.249Z,3.10
2018-09-11T15:25:37.417Z,3.27
2018-09-11T15:30:39.590Z,4.10
2018-09-11T15:35:41.765Z,3.40
2018-09-11T15:40:43.941Z,3.00
2018-09-11T15:45:46.153Z,3.30
2018-09-11T15:50:48.620Z,3.40
2018-09-11T15:55:50.888Z,12.20
2018-09-11T16:00:53.017Z,52.13
2018-09-11T16:05:55.174Z,41.60
2018-09-11T16:10:57.335Z,3.57
2018-09-11T16:15:59.498Z,2.90
2018-09-11T16:21:02.145Z,2.80
2018-09-11T16:26:04.494Z,3.17
2018-09-11T16:31:07.501Z,2.90
2018-09-11T16:36:09.896Z,2.90
2018-09-11T16:41:12.058Z,5.10
2018-09-11T16:46:14.254Z,2.93
2018-09-11T16:51:16.436Z,3.13
2018-09-11T16:56:18.610Z,3.00
2018-09-11T17:01:20.801Z,3.20
2018-09-11T17:06:22.983Z,2.90
2018-09-11T17:11:25.141Z,3.10
2018-09-11T17:16:27.305Z,3.30
2018-09-11T17:21:29.534Z,3.17
2018-09-11T17:26:31.715Z,4.00
2018-09-11T17:31:33.849Z,3.53
2018-09-11T17:36:36.083Z,3.43
2018-09-11T17:41:39.677Z,3.17
2018-09-11T17:46:41.818Z,3.50
2018-09-11T17:51:43.977Z,3.83
2018-09-11T17:56:46.130Z,3.07
2018-09-11T18:01:48.289Z,3.60
2018-09-11T18:06:50.453Z,3.20
2018-09-11T18:11:52.593Z,3.40
2018-09-11T18:16:54.752Z,3.60
2018-09-11T18:21:56.944Z,3.90
2018-09-11T18:26:59.128Z,3.70
2018-09-11T18:32:01.315Z,4.20
2018-09-11T18:37:03.519Z,4.00
2018-09-11T18:42:05.701Z,4.60
2018-09-11T18:47:08.042Z,4.50
2018-09-11T18:52:10.294Z,3.57
2018-09-11T18:57:12.466Z,3.80
2018-09-11T19:02:14.689Z,4.17
2018-09-11T19:07:16.979Z,3.50
2018-09-11T19:12:19.174Z,3.77
2018-09-11T19:17:21.402Z,3.40
2018-09-11T19:22:23.594Z,3.67
2018-09-11T19:27:25.770Z,3.77
2018-09-11T19:32:28.075Z,4.53
2018-09-11T19:37:30.298Z,4.70
2018-09-11T19:42:32.449Z,4.37
2018-09-11T19:47:34.662Z,5.27
2018-09-11T19:52:36.855Z,4.50
2018-09-11T19:57:39.057Z,4.30
2018-09-11T20:02:41.235Z,3.70
2018-09-11T20:07:43.405Z,3.80
2018-09-11T20:12:45.606Z,3.90
2018-09-11T20:17:47.837Z,4.60
2018-09-11T20:22:50.075Z,3.93
2018-09-11T20:27:52.245Z,3.70
2018-09-11T20:32:54.561Z,3.93
2018-09-11T20:37:56.775Z,3.90
2018-09-11T20:42:58.977Z,3.60
2018-09-11T20:48:01.155Z,4.40
2018-09-11T20:53:03.334Z,4.20
2018-09-11T20:58:05.579Z,3.60
2018-09-11T21:03:07.770Z,4.20
2018-09-11T21:08:09.941Z,4.03
2018-09-11T21:13:12.173Z,3.93
2018-09-11T21:18:14.401Z,4.27
2018-09-11T21:23:16.608Z,3.80
2018-09-11T21:28:18.761Z,3.73
2018-09-11T21:33:20.950Z,3.60
2018-09-11T21:38:23.123Z,3.60
2018-09-11T21:43:25.909Z,3.80
2018-09-11T21:48:28.064Z,4.07
2018-09-11T21:53:30.527Z,3.40
2018-09-11T21:58:32.823Z,3.83
2018-09-11T22:03:34.986Z,3.77
2018-09-11T22:08:37.159Z,3.90
2018-09-11T22:13:39.350Z,3.80
2018-09-11T22:18:41.510Z,3.70
2018-09-11T22:23:44.093Z,3.90
2018-09-11T22:28:46.382Z,3.90
2018-09-11T22:33:48.551Z,3.73
2018-09-11T22:38:51.326Z,3.80
2018-09-11T22:43:53.582Z,3.97
2018-09-11T22:48:55.785Z,4.00
2018-09-11T22:53:57.991Z,4.27
2018-09-11T22:59:00.206Z,4.20
2018-09-11T23:04:03.416Z,3.60
2018-09-11T23:09:07.135Z,3.80
2018-09-11T23:14:09.297Z,3.97
2018-09-11T23:19:11.486Z,3.53
2018-09-11T23:24:13.645Z,4.33
2018-09-11T23:29:16.456Z,3.97
2018-09-11T23:34:18.769Z,4.50
2018-09-11T23:39:20.933Z,4.37
2018-09-11T23:44:23.165Z,4.97
2018-09-11T23:49:25.346Z,4.70
2018-09-11T23:54:27.541Z,4.87
2018-09-11T23:59:29.741Z,5.20
